createdAt,value
2023-05-13T00:00:33.304Z,5.73
2023-05-13T00:03:04.028Z,5.33
2023-05-13T00:05:34.932Z,4.90
2023-05-13T00:08:07.550Z,4.83
2023-05-13T00:10:38.719Z,4.40
2023-05-13T00:13:10.374Z,4.13
2023-05-13T00:15:41.705Z,3.87
2023-05-13T00:18:12.368Z,3.87
2023-05-13T00:20:43.113Z,3.57
2023-05-13T00:23:14.817Z,3.57
2023-05-13T00:25:45.518Z,4.03
2023-05-13T00:28:16.135Z,3.73
2023-05-13T00:30:47.385Z,4.43
2023-05-13T00:33:18.404Z,4.17
2023-05-13T00:35:49.056Z,4.00
2023-05-13T00:38:19.675Z,4.00
2023-05-13T00:40:51.663Z,4.10
2023-05-13T00:43:22.369Z,3.80
2023-05-13T00:45:53.344Z,4.63
2023-05-13T00:48:24.908Z,4.00
2023-05-13T00:50:55.888Z,4.73
2023-05-13T00:53:26.468Z,4.73
2023-05-13T00:55:57.084Z,4.37
2023-05-13T00:58:28.052Z,3.80
2023-05-13T01:01:03.518Z,3.60
2023-05-13T01:03:40.164Z,4.17
2023-05-13T01:06:14.593Z,3.67
2023-05-13T01:08:49.015Z,4.67
2023-05-13T01:11:22.778Z,5.23
2023-05-13T01:13:56.354Z,7.23
2023-05-13T01:16:29.988Z,5.07
2023-05-13T01:19:03.680Z,6.73
2023-05-13T01:21:37.757Z,8.83
2023-05-13T01:24:09.894Z,8.27
2023-05-13T01:26:40.666Z,8.13
2023-05-13T01:29:11.344Z,8.63
2023-05-13T01:31:43.921Z,9.33
2023-05-13T01:34:16.833Z,8.90
2023-05-13T01:36:47.492Z,8.00
2023-05-13T01:39:19.721Z,8.93
2023-05-13T01:41:50.468Z,8.60
2023-05-13T01:44:21.038Z,8.67
2023-05-13T01:46:51.686Z,8.97
2023-05-13T01:49:22.521Z,8.90
2023-05-13T01:51:53.246Z,9.60
2023-05-13T01:54:23.954Z,10.23
2023-05-13T01:56:54.586Z,9.83
2023-05-13T01:59:25.595Z,8.73
2023-05-13T02:01:56.295Z,9.50
2023-05-13T02:04:27.641Z,9.20
2023-05-13T02:06:58.387Z,9.07
2023-05-13T02:09:29.040Z,8.53
2023-05-13T02:11:59.731Z,8.13
2023-05-13T02:14:30.381Z,8.80
2023-05-13T02:17:01.050Z,8.33
2023-05-13T02:19:31.753Z,9.37
2023-05-13T02:22:02.450Z,8.80
2023-05-13T02:24:34.899Z,8.27
2023-05-13T02:27:05.913Z,8.77
2023-05-13T02:29:36.544Z,8.17
2023-05-13T02:32:08.776Z,8.97
2023-05-13T02:34:39.516Z,8.70
2023-05-13T02:37:10.237Z,8.83
2023-05-13T02:39:40.882Z,8.77
2023-05-13T02:42:11.622Z,7.27
2023-05-13T02:44:42.258Z,8.20
2023-05-13T02:47:12.835Z,8.57
2023-05-13T02:49:43.466Z,8.80
2023-05-13T02:52:14.070Z,8.77
2023-05-13T02:54:44.789Z,8.40
2023-05-13T02:57:15.412Z,9.07
2023-05-13T02:59:46.652Z,7.70
2023-05-13T03:02:17.382Z,8.43
2023-05-13T03:04:48.101Z,8.70
2023-05-13T03:07:18.780Z,8.73
2023-05-13T03:09:49.468Z,8.37
2023-05-13T03:12:20.537Z,9.70
2023-05-13T03:14:51.183Z,9.00
2023-05-13T03:17:22.183Z,8.67
2023-05-13T03:19:53.031Z,8.20
2023-05-13T03:22:23.743Z,8.70
2023-05-13T03:24:54.356Z,8.57
2023-05-13T03:27:24.979Z,9.13
2023-05-13T03:29:55.619Z,9.87
2023-05-13T03:32:28.002Z,8.63
2023-05-13T03:34:58.738Z,10.20
2023-05-13T03:37:29.336Z,8.93
2023-05-13T03:40:00.043Z,8.60
2023-05-13T03:42:31.186Z,8.77
2023-05-13T03:45:01.853Z,8.27
2023-05-13T03:47:32.495Z,8.80
2023-05-13T03:50:03.214Z,8.73
2023-05-13T03:52:33.914Z,9.17
2023-05-13T03:55:04.703Z,7.97
2023-05-13T03:57:35.329Z,9.10
2023-05-13T04:00:07.861Z,10.00
2023-05-13T04:02:38.750Z,9.87
2023-05-13T04:05:10.457Z,8.90
2023-05-13T04:07:41.393Z,10.00
2023-05-13T04:10:15.458Z,8.67
2023-05-13T04:12:45.520Z,9.03
2023-05-13T04:15:16.284Z,9.13
2023-05-13T04:17:46.971Z,8.93
2023-05-13T04:20:17.981Z,9.33
2023-05-13T04:22:49.386Z,8.80
2023-05-13T04:25:20.277Z,8.93
2023-05-13T04:27:50.917Z,8.60
2023-05-13T04:30:21.930Z,7.73
2023-05-13T04:32:52.957Z,8.93
2023-05-13T04:35:24.375Z,8.30
2023-05-13T04:37:55.032Z,8.63
2023-05-13T04:40:26.673Z,7.50
2023-05-13T04:42:57.541Z,8.53
2023-05-13T04:45:28.222Z,7.97
2023-05-13T04:47:58.830Z,8.07
2023-05-13T04:50:29.630Z,7.83
2023-05-13T04:53:00.907Z,8.87
2023-05-13T04:55:31.513Z,8.77
2023-05-13T04:58:02.138Z,9.20
2023-05-13T05:00:32.859Z,9.43
2023-05-13T05:05:41.358Z,6.40
2023-05-13T05:08:12.594Z,8.70
2023-05-13T05:10:43.851Z,7.73
2023-05-13T05:13:14.851Z,7.80
2023-05-13T05:15:45.865Z,7.67
2023-05-13T05:18:16.697Z,7.70
2023-05-13T05:20:47.716Z,8.90
2023-05-13T05:23:18.706Z,8.57
2023-05-13T05:25:55.213Z,8.80
2023-05-13T05:28:22.225Z,9.50
2023-05-13T05:30:53.585Z,8.63
2023-05-13T05:33:25.089Z,9.40
2023-05-13T05:35:56.109Z,8.67
2023-05-13T05:38:27.090Z,10.37
2023-05-13T05:40:58.252Z,11.90
2023-05-13T05:43:29.275Z,11.67
2023-05-13T05:46:00.174Z,9.97
2023-05-13T05:48:33.200Z,9.37
2023-05-13T05:51:03.955Z,9.67
2023-05-13T05:53:37.801Z,9.57
2023-05-13T05:56:09.214Z,9.43
2023-05-13T05:58:39.989Z,8.33
2023-05-13T06:01:10.818Z,8.10
2023-05-13T06:03:41.923Z,8.97
2023-05-13T06:06:12.694Z,8.70
2023-05-13T06:08:43.404Z,8.40
2023-05-13T06:11:14.110Z,9.60
2023-05-13T06:13:45.323Z,8.83
2023-05-13T06:16:16.071Z,8.87
2023-05-13T06:18:46.948Z,8.70
2023-05-13T06:21:17.658Z,8.83
2023-05-13T06:23:48.331Z,8.20
2023-05-13T06:26:19.132Z,8.83
2023-05-13T06:28:49.965Z,7.93
2023-05-13T06:31:20.991Z,8.17
2023-05-13T06:33:51.686Z,8.07
2023-05-13T06:36:22.342Z,7.63
2023-05-13T06:38:52.918Z,7.57
2023-05-13T06:41:24.100Z,7.47
2023-05-13T06:43:55.113Z,8.20
2023-05-13T06:46:26.042Z,8.00
2023-05-13T06:48:58.027Z,8.60
2023-05-13T06:51:33.218Z,9.03
2023-05-13T06:54:09.341Z,9.77
2023-05-13T06:56:40.166Z,10.03
2023-05-13T06:59:12.139Z,9.07
2023-05-13T07:01:42.848Z,9.30
2023-05-13T07:04:13.537Z,9.73
2023-05-13T07:06:44.311Z,9.13
2023-05-13T07:09:15.767Z,9.87
2023-05-13T07:11:46.542Z,10.30
2023-05-13T07:14:17.183Z,10.10
2023-05-13T07:16:47.963Z,9.90
2023-05-13T07:19:18.768Z,10.07
2023-05-13T07:21:49.571Z,9.50
2023-05-13T07:24:20.146Z,9.33
2023-05-13T07:26:50.893Z,10.00
2023-05-13T07:31:58.734Z,8.10
2023-05-13T07:34:29.530Z,6.93
2023-05-13T07:37:00.163Z,6.87
2023-05-13T07:39:31.521Z,6.77
2023-05-13T07:42:02.345Z,6.10
2023-05-13T07:44:32.973Z,6.50
2023-05-13T07:47:03.649Z,6.27
2023-05-13T07:49:34.338Z,6.37
2023-05-13T07:52:05.303Z,6.03
2023-05-13T07:54:36.138Z,5.83
2023-05-13T07:57:07.139Z,6.13
2023-05-13T07:59:37.815Z,6.10
2023-05-13T08:02:09.548Z,5.83
2023-05-13T08:04:40.330Z,5.33
2023-05-13T08:07:11.076Z,4.63
2023-05-13T08:09:41.713Z,4.67
2023-05-13T08:12:12.474Z,3.90
2023-05-13T08:14:43.532Z,3.57
2023-05-13T08:17:14.174Z,3.17
2023-05-13T08:19:44.811Z,3.10
2023-05-13T08:22:15.427Z,2.83
2023-05-13T08:24:46.176Z,2.60
2023-05-13T08:27:17.406Z,2.57
2023-05-13T08:29:48.096Z,2.40
2023-05-13T08:32:19.000Z,2.47
2023-05-13T08:34:50.845Z,2.10
2023-05-13T08:37:22.013Z,2.07
2023-05-13T08:39:52.866Z,1.70
2023-05-13T08:42:24.268Z,1.70
2023-05-13T08:44:56.322Z,1.90
2023-05-13T08:47:30.585Z,1.47
2023-05-13T08:50:02.630Z,3.17
2023-05-13T08:52:34.478Z,3.10
2023-05-13T08:55:07.114Z,3.50
2023-05-13T08:57:38.290Z,2.90
2023-05-13T09:00:11.437Z,3.50
2023-05-13T09:02:42.549Z,4.03
2023-05-13T09:05:13.864Z,4.53
2023-05-13T09:07:45.206Z,3.80
2023-05-13T09:10:16.647Z,3.87
2023-05-13T09:12:49.743Z,4.13
2023-05-13T09:15:22.558Z,4.03
2023-05-13T09:17:55.887Z,3.77
2023-05-13T09:20:27.104Z,4.03
2023-05-13T09:23:00.338Z,3.77
2023-05-13T09:25:32.564Z,3.90
2023-05-13T09:28:04.751Z,3.17
2023-05-13T09:30:38.821Z,3.10
2023-05-13T09:33:12.208Z,3.10
2023-05-13T09:35:44.551Z,2.73
2023-05-13T09:38:19.231Z,2.50
2023-05-13T09:40:57.220Z,2.40
2023-05-13T09:43:29.521Z,2.50
2023-05-13T09:46:03.476Z,2.33
2023-05-13T09:48:39.294Z,2.03
2023-05-13T09:51:10.134Z,2.20
2023-05-13T09:53:42.376Z,1.80
2023-05-13T09:56:13.151Z,1.90
2023-05-13T09:58:47.577Z,2.20
2023-05-13T10:01:18.771Z,2.07
2023-05-13T10:03:49.756Z,2.07
2023-05-13T10:06:23.949Z,1.97
2023-05-13T10:08:55.321Z,2.50
2023-05-13T10:11:28.722Z,1.73
2023-05-13T10:14:03.162Z,2.37
2023-05-13T10:16:34.865Z,1.80
2023-05-13T10:19:06.263Z,1.87
2023-05-13T10:21:38.234Z,1.60
2023-05-13T10:24:10.077Z,1.70
2023-05-13T10:26:41.878Z,1.60
2023-05-13T10:29:13.297Z,1.60
2023-05-13T10:31:47.245Z,1.63
2023-05-13T10:34:18.563Z,1.70
2023-05-13T10:36:57.030Z,1.60
2023-05-13T10:39:58.359Z,1.90
2023-05-13T10:42:49.949Z,2.27
2023-05-13T10:45:20.544Z,1.77
2023-05-13T10:47:53.598Z,1.50
2023-05-13T10:53:13.189Z,1.00
2023-05-13T10:55:46.293Z,1.27
2023-05-13T10:58:18.250Z,1.20
2023-05-13T11:00:49.631Z,1.33
2023-05-13T11:03:31.242Z,1.00
2023-05-13T11:06:05.266Z,1.10
2023-05-13T11:08:43.216Z,1.13
2023-05-13T11:11:28.460Z,0.90
2023-05-13T11:14:19.410Z,1.00
2023-05-13T11:16:52.764Z,0.90
2023-05-13T11:19:26.232Z,1.60
2023-05-13T11:21:58.567Z,0.60
2023-05-13T11:24:29.313Z,0.87
2023-05-13T11:27:03.325Z,0.70
2023-05-13T11:29:36.094Z,0.57
2023-05-13T11:32:08.579Z,0.50
2023-05-13T11:34:40.069Z,0.53
2023-05-13T11:37:12.128Z,0.60
2023-05-13T11:39:44.027Z,0.47
2023-05-13T11:42:15.247Z,0.30
2023-05-13T11:45:05.745Z,0.30
2023-05-13T11:47:37.589Z,0.37
2023-05-13T11:50:20.461Z,0.20
2023-05-13T11:52:55.831Z,0.30
2023-05-13T11:55:31.295Z,0.30
2023-05-13T11:58:03.157Z,0.47
2023-05-13T12:03:15.622Z,0.40
2023-05-13T12:05:46.437Z,0.47
2023-05-13T12:08:17.406Z,0.50
2023-05-13T12:10:48.171Z,0.33
2023-05-13T12:15:58.152Z,0.40
2023-05-13T12:18:29.062Z,0.47
2023-05-13T12:20:59.907Z,0.60
2023-05-13T12:23:39.792Z,0.40
2023-05-13T12:26:11.248Z,0.40
2023-05-13T12:28:42.010Z,0.93
2023-05-13T12:31:15.748Z,0.60
2023-05-13T12:33:49.542Z,0.50
2023-05-13T12:36:23.629Z,0.57
2023-05-13T12:39:00.472Z,0.60
2023-05-13T12:41:32.916Z,0.90
2023-05-13T12:44:05.084Z,0.70
2023-05-13T12:46:36.048Z,0.70
2023-05-13T12:49:08.123Z,0.80
2023-05-13T12:51:38.939Z,0.77
2023-05-13T12:54:10.635Z,0.83
2023-05-13T12:56:41.718Z,0.60
2023-05-13T12:59:13.579Z,0.47
2023-05-13T13:01:44.637Z,0.90
2023-05-13T13:04:16.938Z,0.73
2023-05-13T13:06:47.977Z,0.70
2023-05-13T13:09:18.883Z,0.80
2023-05-13T13:11:49.692Z,0.80
2023-05-13T13:14:20.800Z,0.60
2023-05-13T13:16:51.686Z,0.50
2023-05-13T13:19:22.739Z,0.47
2023-05-13T13:21:53.782Z,0.70
2023-05-13T13:24:25.634Z,0.63
2023-05-13T13:26:56.646Z,0.70
2023-05-13T13:29:27.462Z,0.60
2023-05-13T13:31:58.134Z,0.40
2023-05-13T13:34:29.005Z,0.87
2023-05-13T13:37:00.160Z,0.70
2023-05-13T13:39:30.874Z,0.33
2023-05-13T13:42:03.309Z,0.60
2023-05-13T13:44:34.079Z,0.33
2023-05-13T13:47:05.291Z,0.47
2023-05-13T13:49:36.117Z,0.90
2023-05-13T13:52:07.990Z,0.57
2023-05-13T13:54:38.802Z,0.43
2023-05-13T13:57:09.653Z,0.60
2023-05-13T13:59:40.313Z,0.57
2023-05-13T14:02:11.170Z,2.07
2023-05-13T14:04:41.989Z,0.33
2023-05-13T14:07:12.719Z,0.30
2023-05-13T14:09:43.411Z,0.70
2023-05-13T14:12:14.174Z,1.50
2023-05-13T14:14:44.866Z,3.40
2023-05-13T14:17:15.633Z,0.43
2023-05-13T14:19:46.378Z,0.63
2023-05-13T14:22:17.805Z,1.00
2023-05-13T14:24:48.516Z,0.40
2023-05-13T14:27:19.432Z,1.47
2023-05-13T14:29:50.429Z,1.87
2023-05-13T14:32:21.167Z,5.63
2023-05-13T14:34:53.403Z,1.87
2023-05-13T14:37:25.545Z,0.90
2023-05-13T14:39:57.176Z,0.40
2023-05-13T14:42:27.916Z,0.50
2023-05-13T14:44:58.613Z,0.60
2023-05-13T14:47:29.362Z,0.60
2023-05-13T14:50:00.702Z,1.80
2023-05-13T14:52:31.362Z,0.50
2023-05-13T14:55:02.047Z,0.60
2023-05-13T14:57:32.880Z,0.50
2023-05-13T15:00:03.941Z,1.10
2023-05-13T15:02:34.764Z,0.40
2023-05-13T15:05:06.483Z,0.40
2023-05-13T15:07:37.248Z,0.40
2023-05-13T15:10:09.818Z,0.50
2023-05-13T15:12:40.585Z,0.57
2023-05-13T15:15:13.876Z,0.57
2023-05-13T15:17:44.785Z,0.80
2023-05-13T15:20:16.010Z,0.60
2023-05-13T15:22:47.989Z,0.60
2023-05-13T15:25:23.498Z,0.60
2023-05-13T15:27:54.271Z,0.60
2023-05-13T15:30:25.117Z,0.70
2023-05-13T15:32:55.917Z,0.40
2023-05-13T15:35:26.571Z,0.60
2023-05-13T15:37:57.760Z,0.40
2023-05-13T15:40:28.616Z,0.40
2023-05-13T15:42:59.386Z,1.10
2023-05-13T15:45:30.235Z,1.67
2023-05-13T15:48:00.971Z,1.90
2023-05-13T15:50:32.156Z,2.30
2023-05-13T15:53:02.886Z,2.00
2023-05-13T15:55:34.421Z,1.50
2023-05-13T15:58:05.236Z,1.60
2023-05-13T16:00:36.091Z,1.13
2023-05-13T16:03:07.665Z,1.13
2023-05-13T16:05:38.892Z,1.00
2023-05-13T16:08:10.032Z,1.20
2023-05-13T16:10:40.873Z,1.50
2023-05-13T16:13:11.888Z,1.00
2023-05-13T16:15:42.786Z,1.50
2023-05-13T16:18:13.484Z,1.47
2023-05-13T16:20:44.615Z,1.43
2023-05-13T16:23:15.301Z,1.33
2023-05-13T16:25:46.151Z,0.90
2023-05-13T16:28:17.373Z,0.80
2023-05-13T16:33:26.210Z,0.50
2023-05-13T16:35:57.155Z,0.57
2023-05-13T16:38:27.881Z,0.50
2023-05-13T16:40:58.723Z,0.60
2023-05-13T16:43:29.691Z,0.60
2023-05-13T16:46:00.562Z,0.70
2023-05-13T16:48:31.255Z,0.93
2023-05-13T16:51:01.982Z,0.70
2023-05-13T16:53:32.597Z,0.73
2023-05-13T16:56:03.346Z,1.30
2023-05-13T16:58:34.147Z,0.90
2023-05-13T17:01:04.830Z,1.20
2023-05-13T17:03:35.661Z,1.47
2023-05-13T17:06:07.912Z,2.60
2023-05-13T17:08:38.787Z,2.03
2023-05-13T17:13:47.976Z,1.70
2023-05-13T17:16:18.806Z,1.57
2023-05-13T17:18:49.987Z,2.60
2023-05-13T17:21:21.691Z,2.10
2023-05-13T17:23:52.632Z,2.20
2023-05-13T17:26:23.561Z,1.90
2023-05-13T17:28:54.279Z,1.70
2023-05-13T17:31:26.356Z,1.70
2023-05-13T17:33:57.133Z,1.80
2023-05-13T17:36:27.839Z,1.77
2023-05-13T17:38:58.521Z,2.13
2023-05-13T17:41:29.236Z,3.17
2023-05-13T17:43:59.942Z,4.03
2023-05-13T17:46:30.554Z,4.60
2023-05-13T17:49:02.208Z,8.23
2023-05-13T17:51:33.651Z,2.40
2023-05-13T17:54:09.946Z,1.60
2023-05-13T17:56:41.084Z,1.93
2023-05-13T17:59:12.130Z,2.10
2023-05-13T18:01:42.858Z,1.80
2023-05-13T18:04:13.607Z,2.17
2023-05-13T18:06:44.239Z,1.90
2023-05-13T18:09:14.892Z,2.10
2023-05-13T18:11:46.849Z,1.60
2023-05-13T18:14:17.543Z,2.40
2023-05-13T18:16:48.469Z,1.50
2023-05-13T18:19:19.369Z,1.53
2023-05-13T18:21:50.006Z,1.50
2023-05-13T18:24:20.680Z,1.70
2023-05-13T18:26:51.532Z,2.22
2023-05-13T18:29:22.228Z,1.60
2023-05-13T18:31:53.020Z,1.87
2023-05-13T18:34:23.927Z,1.50
2023-05-13T18:36:55.105Z,1.57
2023-05-13T18:39:25.722Z,1.60
2023-05-13T18:41:56.462Z,1.70
2023-05-13T18:44:27.101Z,1.90
2023-05-13T18:46:57.786Z,1.90
2023-05-13T18:49:29.008Z,1.73
2023-05-13T18:51:59.770Z,1.87
2023-05-13T18:54:30.391Z,2.03
2023-05-13T18:57:01.139Z,2.10
2023-05-13T18:59:31.840Z,2.40
2023-05-13T19:02:02.736Z,2.30
2023-05-13T19:04:34.073Z,2.47
2023-05-13T19:07:05.424Z,2.60
2023-05-13T19:09:36.330Z,1.83
2023-05-13T19:12:07.847Z,2.17
2023-05-13T19:14:38.439Z,1.77
2023-05-13T19:17:11.251Z,1.93
2023-05-13T19:19:43.206Z,1.70
2023-05-13T19:22:13.867Z,1.97
2023-05-13T19:24:44.532Z,1.60
2023-05-13T19:27:15.808Z,2.07
2023-05-13T19:29:46.507Z,2.17
2023-05-13T19:32:17.605Z,1.87
2023-05-13T19:34:50.263Z,2.10
2023-05-13T19:37:21.064Z,2.17
2023-05-13T19:39:51.662Z,2.53
2023-05-13T19:42:22.345Z,2.30
2023-05-13T19:44:53.117Z,1.80
2023-05-13T19:47:25.496Z,2.03
2023-05-13T19:49:56.180Z,1.90
2023-05-13T19:52:27.947Z,2.30
2023-05-13T19:54:58.986Z,2.57
2023-05-13T19:57:30.149Z,2.70
2023-05-13T20:00:01.802Z,2.20
2023-05-13T20:02:32.724Z,2.40
2023-05-13T20:05:03.563Z,2.17
2023-05-13T20:07:34.259Z,2.70
2023-05-13T20:10:05.142Z,3.33
2023-05-13T20:12:36.889Z,2.47
2023-05-13T20:15:10.487Z,2.07
2023-05-13T20:17:41.192Z,1.97
2023-05-13T20:20:13.844Z,2.13
2023-05-13T20:22:44.635Z,2.10
2023-05-13T20:25:16.185Z,2.20
2023-05-13T20:27:47.286Z,1.93
2023-05-13T20:30:20.713Z,2.30
2023-05-13T20:32:52.054Z,2.50
2023-05-13T20:35:23.684Z,2.73
2023-05-13T20:37:54.683Z,3.42
2023-05-13T20:40:25.645Z,2.33
2023-05-13T20:42:57.087Z,2.93
2023-05-13T20:45:28.480Z,2.27
2023-05-13T20:48:01.416Z,2.67
2023-05-13T20:50:32.674Z,2.97
2023-05-13T20:53:03.835Z,3.30
2023-05-13T20:58:14.318Z,2.83
2023-05-13T21:00:45.497Z,2.67
2023-05-13T21:03:17.832Z,2.40
2023-05-13T21:05:49.268Z,2.80
2023-05-13T21:08:20.181Z,2.53
2023-05-13T21:10:51.228Z,1.90
2023-05-13T21:16:04.128Z,2.73
2023-05-13T21:18:35.505Z,2.30
2023-05-13T21:21:08.895Z,2.50
2023-05-13T21:23:40.263Z,2.77
2023-05-13T21:26:11.463Z,2.40
2023-05-13T21:28:42.611Z,2.03
2023-05-13T21:31:13.355Z,2.43
2023-05-13T21:33:44.095Z,2.70
2023-05-13T21:36:14.702Z,2.73
2023-05-13T21:38:45.404Z,2.40
2023-05-13T21:41:16.011Z,2.30
2023-05-13T21:46:23.947Z,2.40
2023-05-13T21:48:57.559Z,2.30
2023-05-13T21:51:30.342Z,2.30
2023-05-13T21:54:00.898Z,2.53
2023-05-13T21:56:31.535Z,2.90
2023-05-13T21:59:02.186Z,2.67
2023-05-13T22:01:32.951Z,2.10
2023-05-13T22:04:03.537Z,2.30
2023-05-13T22:06:34.286Z,2.13
2023-05-13T22:09:05.272Z,2.33
2023-05-13T22:11:35.858Z,2.20
2023-05-13T22:14:06.608Z,1.98
2023-05-13T22:16:37.441Z,2.07
2023-05-13T22:19:08.317Z,2.20
2023-05-13T22:21:39.249Z,2.10
2023-05-13T22:24:10.110Z,1.83
2023-05-13T22:26:42.373Z,2.30
2023-05-13T22:29:13.024Z,2.00
2023-05-13T22:31:44.748Z,2.00
2023-05-13T22:34:15.370Z,2.33
2023-05-13T22:36:46.079Z,2.43
2023-05-13T22:39:17.657Z,2.40
2023-05-13T22:41:48.521Z,1.97
2023-05-13T22:44:19.122Z,2.20
2023-05-13T22:46:49.936Z,2.63
2023-05-13T22:49:20.881Z,2.10
2023-05-13T22:51:51.570Z,2.40
2023-05-13T22:54:22.153Z,3.13
2023-05-13T22:56:52.772Z,2.73
2023-05-13T22:59:23.647Z,3.30
2023-05-13T23:01:54.349Z,3.10
2023-05-13T23:04:25.123Z,3.03
2023-05-13T23:06:55.841Z,2.80
2023-05-13T23:09:26.592Z,2.70
2023-05-13T23:11:57.325Z,2.63
2023-05-13T23:14:29.776Z,3.10
2023-05-13T23:17:00.319Z,3.00
2023-05-13T23:19:30.891Z,2.40
2023-05-13T23:22:01.733Z,2.77
2023-05-13T23:24:32.416Z,2.67
2023-05-13T23:27:03.024Z,2.67
2023-05-13T23:29:33.904Z,2.40
2023-05-13T23:32:06.485Z,2.43
2023-05-13T23:34:37.026Z,2.75
2023-05-13T23:37:07.984Z,3.10
2023-05-13T23:39:38.750Z,3.40
2023-05-13T23:42:09.626Z,2.30
2023-05-13T23:44:41.001Z,2.70
2023-05-13T23:47:12.256Z,2.73
2023-05-13T23:49:42.814Z,2.73
2023-05-13T23:52:13.648Z,2.50
2023-05-13T23:54:44.370Z,2.80
2023-05-13T23:57:14.966Z,2.53
2023-05-13T23:59:45.592Z,3.40
